sensor_id;sensor_type;location;lat;lon;timestamp;temperature;humidity
12089;DHT22;6107;49.078;8.578;2022-07-03T00:01:11;16.90;97.80
12089;DHT22;6107;49.078;8.578;2022-07-03T00:03:37;16.80;98.10
12089;DHT22;6107;49.078;8.578;2022-07-03T00:06:02;16.60;98.40
12089;DHT22;6107;49.078;8.578;2022-07-03T00:08:28;16.60;98.30
12089;DHT22;6107;49.078;8.578;2022-07-03T00:10:54;16.90;98.00
12089;DHT22;6107;49.078;8.578;2022-07-03T00:13:19;17.00;97.40
12089;DHT22;6107;49.078;8.578;2022-07-03T00:15:45;16.90;97.80
12089;DHT22;6107;49.078;8.578;2022-07-03T00:18:10;16.60;98.20
12089;DHT22;6107;49.078;8.578;2022-07-03T00:20:46;16.60;98.70
12089;DHT22;6107;49.078;8.578;2022-07-03T00:23:15;16.60;98.70
12089;DHT22;6107;49.078;8.578;2022-07-03T00:25:42;16.80;98.80
12089;DHT22;6107;49.078;8.578;2022-07-03T00:28:08;16.80;98.00
12089;DHT22;6107;49.078;8.578;2022-07-03T00:30:34;16.50;98.50
12089;DHT22;6107;49.078;8.578;2022-07-03T00:33:04;16.40;99.00
12089;DHT22;6107;49.078;8.578;2022-07-03T00:35:35;16.70;98.40
12089;DHT22;6107;49.078;8.578;2022-07-03T00:38:02;16.50;98.20
12089;DHT22;6107;49.078;8.578;2022-07-03T00:40:29;16.30;99.10
12089;DHT22;6107;49.078;8.578;2022-07-03T00:42:55;16.50;98.80
12089;DHT22;6107;49.078;8.578;2022-07-03T00:45:21;16.30;98.80
12089;DHT22;6107;49.078;8.578;2022-07-03T00:47:47;16.30;99.30
12089;DHT22;6107;49.078;8.578;2022-07-03T00:50:14;16.40;99.20
12089;DHT22;6107;49.078;8.578;2022-07-03T00:52:46;16.10;99.00
12089;DHT22;6107;49.078;8.578;2022-07-03T00:55:15;16.20;99.40
12089;DHT22;6107;49.078;8.578;2022-07-03T00:57:45;16.40;98.90
12089;DHT22;6107;49.078;8.578;2022-07-03T01:00:12;16.10;99.40
12089;DHT22;6107;49.078;8.578;2022-07-03T01:02:49;16.20;99.70
12089;DHT22;6107;49.078;8.578;2022-07-03T01:05:53;16.40;98.80
12089;DHT22;6107;49.078;8.578;2022-07-03T01:08:49;16.30;98.70
12089;DHT22;6107;49.078;8.578;2022-07-03T01:11:37;15.80;99.90
12089;DHT22;6107;49.078;8.578;2022-07-03T01:14:41;15.90;99.90
12089;DHT22;6107;49.078;8.578;2022-07-03T01:17:22;15.50;99.90
12089;DHT22;6107;49.078;8.578;2022-07-03T01:19:49;15.50;99.90
12089;DHT22;6107;49.078;8.578;2022-07-03T01:22:44;15.40;99.90
12089;DHT22;6107;49.078;8.578;2022-07-03T01:30:27;15.50;99.90
12089;DHT22;6107;49.078;8.578;2022-07-03T01:33:05;15.50;99.90
12089;DHT22;6107;49.078;8.578;2022-07-03T01:35:34;15.60;99.90
12089;DHT22;6107;49.078;8.578;2022-07-03T01:38:06;15.60;99.90
12089;DHT22;6107;49.078;8.578;2022-07-03T01:40:34;15.60;99.90
12089;DHT22;6107;49.078;8.578;2022-07-03T01:43:02;15.80;99.90
12089;DHT22;6107;49.078;8.578;2022-07-03T01:45:28;15.70;99.90
12089;DHT22;6107;49.078;8.578;2022-07-03T01:47:57;15.70;99.90
12089;DHT22;6107;49.078;8.578;2022-07-03T01:50:24;15.70;99.90
12089;DHT22;6107;49.078;8.578;2022-07-03T01:52:50;15.60;99.90
12089;DHT22;6107;49.078;8.578;2022-07-03T01:55:17;15.40;99.90
12089;DHT22;6107;49.078;8.578;2022-07-03T01:57:47;15.40;99.90
12089;DHT22;6107;49.078;8.578;2022-07-03T02:00:20;15.30;99.90
12089;DHT22;6107;49.078;8.578;2022-07-03T02:02:55;15.30;99.90
12089;DHT22;6107;49.078;8.578;2022-07-03T02:11:19;15.20;99.90
12089;DHT22;6107;49.078;8.578;2022-07-03T02:13:52;15.20;99.90
12089;DHT22;6107;49.078;8.578;2022-07-03T02:16:25;15.30;99.90
12089;DHT22;6107;49.078;8.578;2022-07-03T02:18:57;15.60;99.90
12089;DHT22;6107;49.078;8.578;2022-07-03T02:21:28;15.40;99.90
12089;DHT22;6107;49.078;8.578;2022-07-03T02:24:20;15.40;99.90
12089;DHT22;6107;49.078;8.578;2022-07-03T02:27:00;15.30;99.90
12089;DHT22;6107;49.078;8.578;2022-07-03T02:29:34;15.20;99.90
12089;DHT22;6107;49.078;8.578;2022-07-03T02:32:03;15.30;99.90
12089;DHT22;6107;49.078;8.578;2022-07-03T02:34:31;15.10;99.90
12089;DHT22;6107;49.078;8.578;2022-07-03T02:37:03;15.10;99.90
12089;DHT22;6107;49.078;8.578;2022-07-03T02:39:59;15.20;99.90
12089;DHT22;6107;49.078;8.578;2022-07-03T02:45:20;15.20;99.90
12089;DHT22;6107;49.078;8.578;2022-07-03T02:48:09;15.40;99.90
12089;DHT22;6107;49.078;8.578;2022-07-03T02:50:37;15.20;99.90
12089;DHT22;6107;49.078;8.578;2022-07-03T02:53:15;15.20;99.90
12089;DHT22;6107;49.078;8.578;2022-07-03T02:55:46;15.20;99.90
12089;DHT22;6107;49.078;8.578;2022-07-03T03:03:26;15.30;99.90
12089;DHT22;6107;49.078;8.578;2022-07-03T03:05:56;15.20;99.90
12089;DHT22;6107;49.078;8.578;2022-07-03T03:08:48;15.10;99.90
12089;DHT22;6107;49.078;8.578;2022-07-03T03:11:44;15.00;99.90
12089;DHT22;6107;49.078;8.578;2022-07-03T03:14:11;15.00;99.90
12089;DHT22;6107;49.078;8.578;2022-07-03T03:16:47;14.80;99.90
12089;DHT22;6107;49.078;8.578;2022-07-03T03:19:14;14.70;99.90
12089;DHT22;6107;49.078;8.578;2022-07-03T03:21:50;15.60;99.90
12089;DHT22;6107;49.078;8.578;2022-07-03T03:24:18;14.60;99.90
12089;DHT22;6107;49.078;8.578;2022-07-03T03:26:43;14.60;99.90
12089;DHT22;6107;49.078;8.578;2022-07-03T03:29:09;14.80;99.90
12089;DHT22;6107;49.078;8.578;2022-07-03T03:31:35;14.90;99.90
12089;DHT22;6107;49.078;8.578;2022-07-03T03:34:01;15.10;99.90
12089;DHT22;6107;49.078;8.578;2022-07-03T03:36:27;15.10;99.90
12089;DHT22;6107;49.078;8.578;2022-07-03T03:38:53;15.10;99.90
12089;DHT22;6107;49.078;8.578;2022-07-03T03:41:19;15.10;99.90
12089;DHT22;6107;49.078;8.578;2022-07-03T03:43:45;15.20;99.90
12089;DHT22;6107;49.078;8.578;2022-07-03T03:46:11;15.30;99.90
12089;DHT22;6107;49.078;8.578;2022-07-03T03:48:36;15.20;99.90
12089;DHT22;6107;49.078;8.578;2022-07-03T03:51:02;15.30;99.90
12089;DHT22;6107;49.078;8.578;2022-07-03T03:53:30;15.40;99.90
12089;DHT22;6107;49.078;8.578;2022-07-03T03:58:24;15.50;99.90
12089;DHT22;6107;49.078;8.578;2022-07-03T04:00:50;15.30;99.90
12089;DHT22;6107;49.078;8.578;2022-07-03T04:03:15;15.30;99.90
12089;DHT22;6107;49.078;8.578;2022-07-03T04:05:41;15.30;99.90
12089;DHT22;6107;49.078;8.578;2022-07-03T04:08:06;15.40;99.90
12089;DHT22;6107;49.078;8.578;2022-07-03T04:10:32;15.50;99.90
12089;DHT22;6107;49.078;8.578;2022-07-03T04:12:57;15.60;99.90
12089;DHT22;6107;49.078;8.578;2022-07-03T04:15:23;15.60;99.90
12089;DHT22;6107;49.078;8.578;2022-07-03T04:17:51;15.70;99.90
12089;DHT22;6107;49.078;8.578;2022-07-03T04:20:17;15.80;99.90
12089;DHT22;6107;49.078;8.578;2022-07-03T04:22:43;15.90;99.90
12089;DHT22;6107;49.078;8.578;2022-07-03T04:25:08;15.90;99.90
12089;DHT22;6107;49.078;8.578;2022-07-03T04:27:34;16.00;99.90
12089;DHT22;6107;49.078;8.578;2022-07-03T04:30:00;16.20;99.90
12089;DHT22;6107;49.078;8.578;2022-07-03T04:32:25;16.20;99.90
12089;DHT22;6107;49.078;8.578;2022-07-03T04:34:51;16.20;99.90
12089;DHT22;6107;49.078;8.578;2022-07-03T04:37:16;16.30;99.90
12089;DHT22;6107;49.078;8.578;2022-07-03T04:39:41;16.40;99.90
12089;DHT22;6107;49.078;8.578;2022-07-03T04:42:07;16.50;99.90
12089;DHT22;6107;49.078;8.578;2022-07-03T04:44:33;16.50;99.90
12089;DHT22;6107;49.078;8.578;2022-07-03T04:46:58;16.50;99.90
12089;DHT22;6107;49.078;8.578;2022-07-03T04:49:24;16.60;99.90
12089;DHT22;6107;49.078;8.578;2022-07-03T04:51:49;16.70;99.90
12089;DHT22;6107;49.078;8.578;2022-07-03T04:54:15;16.80;99.90
12089;DHT22;6107;49.078;8.578;2022-07-03T04:56:40;16.90;99.90
12089;DHT22;6107;49.078;8.578;2022-07-03T04:59:06;17.00;99.90
12089;DHT22;6107;49.078;8.578;2022-07-03T05:01:31;17.10;99.90
12089;DHT22;6107;49.078;8.578;2022-07-03T05:03:57;17.20;99.90
12089;DHT22;6107;49.078;8.578;2022-07-03T05:06:22;17.30;99.90
12089;DHT22;6107;49.078;8.578;2022-07-03T05:08:48;17.30;99.90
12089;DHT22;6107;49.078;8.578;2022-07-03T05:11:13;17.40;99.90
12089;DHT22;6107;49.078;8.578;2022-07-03T05:13:39;17.50;99.90
12089;DHT22;6107;49.078;8.578;2022-07-03T05:16:04;17.60;99.90
12089;DHT22;6107;49.078;8.578;2022-07-03T05:18:30;17.70;99.90
12089;DHT22;6107;49.078;8.578;2022-07-03T05:20:55;17.50;99.90
12089;DHT22;6107;49.078;8.578;2022-07-03T05:23:21;17.90;99.90
12089;DHT22;6107;49.078;8.578;2022-07-03T05:25:46;17.90;99.90
12089;DHT22;6107;49.078;8.578;2022-07-03T05:28:12;18.10;99.90
12089;DHT22;6107;49.078;8.578;2022-07-03T05:30:38;18.20;99.90
12089;DHT22;6107;49.078;8.578;2022-07-03T05:33:03;18.30;99.90
12089;DHT22;6107;49.078;8.578;2022-07-03T05:35:29;18.60;98.80
12089;DHT22;6107;49.078;8.578;2022-07-03T05:37:54;18.90;97.30
12089;DHT22;6107;49.078;8.578;2022-07-03T05:40:20;19.00;96.70
12089;DHT22;6107;49.078;8.578;2022-07-03T05:42:45;19.00;97.50
12089;DHT22;6107;49.078;8.578;2022-07-03T05:45:12;19.00;96.80
12089;DHT22;6107;49.078;8.578;2022-07-03T05:47:37;19.20;96.40
12089;DHT22;6107;49.078;8.578;2022-07-03T05:50:03;19.30;96.70
12089;DHT22;6107;49.078;8.578;2022-07-03T05:52:29;19.40;96.90
12089;DHT22;6107;49.078;8.578;2022-07-03T05:54:54;19.40;97.50
12089;DHT22;6107;49.078;8.578;2022-07-03T05:57:19;19.40;97.20
12089;DHT22;6107;49.078;8.578;2022-07-03T05:59:46;19.40;97.20
12089;DHT22;6107;49.078;8.578;2022-07-03T06:02:12;19.50;96.80
12089;DHT22;6107;49.078;8.578;2022-07-03T06:04:37;19.60;96.90
12089;DHT22;6107;49.078;8.578;2022-07-03T06:07:03;19.70;95.20
12089;DHT22;6107;49.078;8.578;2022-07-03T06:09:29;19.80;95.80
12089;DHT22;6107;49.078;8.578;2022-07-03T06:11:54;19.90;97.90
12089;DHT22;6107;49.078;8.578;2022-07-03T06:14:20;20.00;99.70
12089;DHT22;6107;49.078;8.578;2022-07-03T06:16:45;20.10;94.50
12089;DHT22;6107;49.078;8.578;2022-07-03T06:19:11;20.20;93.90
12089;DHT22;6107;49.078;8.578;2022-07-03T06:21:36;20.30;94.30
12089;DHT22;6107;49.078;8.578;2022-07-03T06:24:01;20.30;94.00
12089;DHT22;6107;49.078;8.578;2022-07-03T06:26:27;20.40;93.90
12089;DHT22;6107;49.078;8.578;2022-07-03T06:28:54;20.60;94.30
12089;DHT22;6107;49.078;8.578;2022-07-03T06:31:20;20.80;94.00
12089;DHT22;6107;49.078;8.578;2022-07-03T06:33:45;20.90;93.20
12089;DHT22;6107;49.078;8.578;2022-07-03T06:36:11;20.90;93.30
12089;DHT22;6107;49.078;8.578;2022-07-03T06:38:36;21.00;93.20
12089;DHT22;6107;49.078;8.578;2022-07-03T06:41:02;21.00;93.30
12089;DHT22;6107;49.078;8.578;2022-07-03T06:43:27;21.20;93.50
12089;DHT22;6107;49.078;8.578;2022-07-03T06:45:53;21.20;92.10
12089;DHT22;6107;49.078;8.578;2022-07-03T06:48:18;21.30;91.30
12089;DHT22;6107;49.078;8.578;2022-07-03T06:50:45;21.40;91.30
12089;DHT22;6107;49.078;8.578;2022-07-03T06:53:11;21.40;91.90
12089;DHT22;6107;49.078;8.578;2022-07-03T06:55:36;21.50;90.90
12089;DHT22;6107;49.078;8.578;2022-07-03T06:58:02;21.60;91.50
12089;DHT22;6107;49.078;8.578;2022-07-03T07:00:28;21.80;91.20
12089;DHT22;6107;49.078;8.578;2022-07-03T07:02:53;21.90;90.60
12089;DHT22;6107;49.078;8.578;2022-07-03T07:07:45;21.90;90.00
12089;DHT22;6107;49.078;8.578;2022-07-03T07:10:10;22.10;88.70
12089;DHT22;6107;49.078;8.578;2022-07-03T07:12:36;22.20;89.20
12089;DHT22;6107;49.078;8.578;2022-07-03T07:15:01;22.30;87.50
12089;DHT22;6107;49.078;8.578;2022-07-03T07:17:27;22.20;87.50
12089;DHT22;6107;49.078;8.578;2022-07-03T07:19:55;22.40;89.30
12089;DHT22;6107;49.078;8.578;2022-07-03T07:22:21;22.50;88.20
12089;DHT22;6107;49.078;8.578;2022-07-03T07:24:46;22.60;84.90
12089;DHT22;6107;49.078;8.578;2022-07-03T07:27:12;22.50;83.60
12089;DHT22;6107;49.078;8.578;2022-07-03T07:29:37;22.60;83.10
12089;DHT22;6107;49.078;8.578;2022-07-03T07:32:03;22.70;83.60
12089;DHT22;6107;49.078;8.578;2022-07-03T07:34:29;22.90;83.00
12089;DHT22;6107;49.078;8.578;2022-07-03T07:39:21;23.10;79.30
12089;DHT22;6107;49.078;8.578;2022-07-03T07:41:46;23.20;79.90
12089;DHT22;6107;49.078;8.578;2022-07-03T07:44:12;23.20;78.10
12089;DHT22;6107;49.078;8.578;2022-07-03T07:46:37;23.40;77.70
12089;DHT22;6107;49.078;8.578;2022-07-03T07:49:03;23.50;75.40
12089;DHT22;6107;49.078;8.578;2022-07-03T07:51:28;23.50;76.30
12089;DHT22;6107;49.078;8.578;2022-07-03T07:53:54;23.50;74.60
12089;DHT22;6107;49.078;8.578;2022-07-03T07:56:23;23.60;75.90
12089;DHT22;6107;49.078;8.578;2022-07-03T07:58:49;23.60;74.00
12089;DHT22;6107;49.078;8.578;2022-07-03T08:01:15;23.70;74.60
12089;DHT22;6107;49.078;8.578;2022-07-03T08:03:59;23.60;74.00
12089;DHT22;6107;49.078;8.578;2022-07-03T08:06:43;23.80;72.80
12089;DHT22;6107;49.078;8.578;2022-07-03T08:09:08;24.00;73.70
12089;DHT22;6107;49.078;8.578;2022-07-03T08:11:34;24.20;73.70
12089;DHT22;6107;49.078;8.578;2022-07-03T08:13:59;24.40;75.10
12089;DHT22;6107;49.078;8.578;2022-07-03T08:16:25;24.60;72.30
12089;DHT22;6107;49.078;8.578;2022-07-03T08:18:50;24.70;71.50
12089;DHT22;6107;49.078;8.578;2022-07-03T08:21:17;24.70;71.10
12089;DHT22;6107;49.078;8.578;2022-07-03T08:23:43;24.50;68.70
12089;DHT22;6107;49.078;8.578;2022-07-03T08:26:09;24.80;68.70
12089;DHT22;6107;49.078;8.578;2022-07-03T08:28:34;24.80;68.30
12089;DHT22;6107;49.078;8.578;2022-07-03T08:31:00;25.00;65.60
12089;DHT22;6107;49.078;8.578;2022-07-03T08:33:25;25.00;67.70
12089;DHT22;6107;49.078;8.578;2022-07-03T08:35:51;25.10;67.60
12089;DHT22;6107;49.078;8.578;2022-07-03T08:38:17;25.40;69.10
12089;DHT22;6107;49.078;8.578;2022-07-03T08:40:43;25.50;67.70
12089;DHT22;6107;49.078;8.578;2022-07-03T08:43:10;25.60;65.40
12089;DHT22;6107;49.078;8.578;2022-07-03T08:45:37;25.50;64.30
12089;DHT22;6107;49.078;8.578;2022-07-03T08:48:04;25.70;66.50
12089;DHT22;6107;49.078;8.578;2022-07-03T08:50:33;25.80;65.50
12089;DHT22;6107;49.078;8.578;2022-07-03T08:55:26;26.00;63.30
12089;DHT22;6107;49.078;8.578;2022-07-03T08:57:52;26.10;66.90
12089;DHT22;6107;49.078;8.578;2022-07-03T09:00:20;26.40;68.70
12089;DHT22;6107;49.078;8.578;2022-07-03T09:02:49;26.50;65.40
12089;DHT22;6107;49.078;8.578;2022-07-03T09:05:16;26.50;63.20
12089;DHT22;6107;49.078;8.578;2022-07-03T09:07:43;26.50;63.50
12089;DHT22;6107;49.078;8.578;2022-07-03T09:10:14;26.30;63.60
12089;DHT22;6107;49.078;8.578;2022-07-03T09:12:41;26.40;61.70
12089;DHT22;6107;49.078;8.578;2022-07-03T09:15:08;26.30;60.10
12089;DHT22;6107;49.078;8.578;2022-07-03T09:17:34;26.30;58.30
12089;DHT22;6107;49.078;8.578;2022-07-03T09:20:02;26.30;59.50
12089;DHT22;6107;49.078;8.578;2022-07-03T09:22:33;26.50;60.50
12089;DHT22;6107;49.078;8.578;2022-07-03T09:30:17;26.80;60.40
12089;DHT22;6107;49.078;8.578;2022-07-03T09:32:47;26.90;58.30
12089;DHT22;6107;49.078;8.578;2022-07-03T09:35:21;26.90;59.40
12089;DHT22;6107;49.078;8.578;2022-07-03T09:40:22;26.90;59.10
12089;DHT22;6107;49.078;8.578;2022-07-03T10:30:50;27.00;56.70
12089;DHT22;6107;49.078;8.578;2022-07-03T10:33:16;28.60;52.50
12089;DHT22;6107;49.078;8.578;2022-07-03T10:35:51;28.80;50.50
12089;DHT22;6107;49.078;8.578;2022-07-03T10:43:43;28.70;51.60
12089;DHT22;6107;49.078;8.578;2022-07-03T10:46:28;29.50;50.40
12089;DHT22;6107;49.078;8.578;2022-07-03T10:49:07;29.40;49.80
12089;DHT22;6107;49.078;8.578;2022-07-03T10:51:56;29.70;50.10
12089;DHT22;6107;49.078;8.578;2022-07-03T11:15:28;29.80;47.00
12089;DHT22;6107;49.078;8.578;2022-07-03T11:20:33;30.00;48.40
12089;DHT22;6107;49.078;8.578;2022-07-03T11:25:47;30.30;47.20
12089;DHT22;6107;49.078;8.578;2022-07-03T11:41:21;30.40;46.40
12089;DHT22;6107;49.078;8.578;2022-07-03T11:43:48;30.50;46.00
12089;DHT22;6107;49.078;8.578;2022-07-03T11:46:23;30.70;44.90
12089;DHT22;6107;49.078;8.578;2022-07-03T11:51:15;30.40;45.40
12089;DHT22;6107;49.078;8.578;2022-07-03T11:56:12;31.00;43.90
12089;DHT22;6107;49.078;8.578;2022-07-03T12:01:34;30.80;43.50
12089;DHT22;6107;49.078;8.578;2022-07-03T12:09:25;30.20;45.00
12089;DHT22;6107;49.078;8.578;2022-07-03T12:12:02;31.10;44.00
12089;DHT22;6107;49.078;8.578;2022-07-03T12:14:45;30.80;46.20
12089;DHT22;6107;49.078;8.578;2022-07-03T12:19:58;31.10;45.30
12089;DHT22;6107;49.078;8.578;2022-07-03T12:22:35;31.50;42.80
12089;DHT22;6107;49.078;8.578;2022-07-03T12:27:30;31.40;43.50
12089;DHT22;6107;49.078;8.578;2022-07-03T12:29:56;30.90;42.80
12089;DHT22;6107;49.078;8.578;2022-07-03T12:32:22;30.90;43.20
12089;DHT22;6107;49.078;8.578;2022-07-03T12:34:48;31.30;43.30
12089;DHT22;6107;49.078;8.578;2022-07-03T12:37:14;30.70;41.00
12089;DHT22;6107;49.078;8.578;2022-07-03T12:39:47;31.10;41.90
12089;DHT22;6107;49.078;8.578;2022-07-03T12:42:14;31.50;43.30
12089;DHT22;6107;49.078;8.578;2022-07-03T12:44:40;31.30;41.80
12089;DHT22;6107;49.078;8.578;2022-07-03T12:47:06;31.50;43.00
12089;DHT22;6107;49.078;8.578;2022-07-03T12:49:32;31.60;42.10
12089;DHT22;6107;49.078;8.578;2022-07-03T12:51:58;31.80;43.20
12089;DHT22;6107;49.078;8.578;2022-07-03T12:54:34;32.30;43.30
12089;DHT22;6107;49.078;8.578;2022-07-03T13:02:27;32.00;42.60
12089;DHT22;6107;49.078;8.578;2022-07-03T13:04:53;32.30;41.10
12089;DHT22;6107;49.078;8.578;2022-07-03T13:07:19;32.00;43.70
12089;DHT22;6107;49.078;8.578;2022-07-03T13:09:52;31.80;40.50
12089;DHT22;6107;49.078;8.578;2022-07-03T13:12:22;31.90;44.00
12089;DHT22;6107;49.078;8.578;2022-07-03T13:14:55;32.30;40.00
12089;DHT22;6107;49.078;8.578;2022-07-03T13:17:21;32.10;41.60
12089;DHT22;6107;49.078;8.578;2022-07-03T13:19:46;33.10;45.80
12089;DHT22;6107;49.078;8.578;2022-07-03T13:22:12;33.70;41.60
12089;DHT22;6107;49.078;8.578;2022-07-03T13:24:37;32.70;40.90
12089;DHT22;6107;49.078;8.578;2022-07-03T13:27:03;32.70;44.10
12089;DHT22;6107;49.078;8.578;2022-07-03T13:29:29;33.20;41.00
12089;DHT22;6107;49.078;8.578;2022-07-03T13:31:54;33.10;39.60
12089;DHT22;6107;49.078;8.578;2022-07-03T13:34:20;33.00;41.70
12089;DHT22;6107;49.078;8.578;2022-07-03T13:36:45;32.70;40.30
12089;DHT22;6107;49.078;8.578;2022-07-03T13:39:11;32.50;40.70
12089;DHT22;6107;49.078;8.578;2022-07-03T13:41:36;32.50;40.20
12089;DHT22;6107;49.078;8.578;2022-07-03T13:44:02;32.70;42.30
12089;DHT22;6107;49.078;8.578;2022-07-03T13:46:27;33.20;42.10
12089;DHT22;6107;49.078;8.578;2022-07-03T13:48:53;32.90;39.30
12089;DHT22;6107;49.078;8.578;2022-07-03T13:51:20;33.00;42.60
12089;DHT22;6107;49.078;8.578;2022-07-03T13:53:46;33.20;39.80
12089;DHT22;6107;49.078;8.578;2022-07-03T13:56:14;33.50;41.10
12089;DHT22;6107;49.078;8.578;2022-07-03T13:58:40;32.70;40.90
12089;DHT22;6107;49.078;8.578;2022-07-03T14:03:32;32.90;39.60
12089;DHT22;6107;49.078;8.578;2022-07-03T14:05:58;32.70;40.60
12089;DHT22;6107;49.078;8.578;2022-07-03T14:08:24;33.10;40.90
12089;DHT22;6107;49.078;8.578;2022-07-03T14:10:49;33.00;39.30
12089;DHT22;6107;49.078;8.578;2022-07-03T14:13:15;32.70;40.40
12089;DHT22;6107;49.078;8.578;2022-07-03T14:15:40;32.90;41.10
12089;DHT22;6107;49.078;8.578;2022-07-03T14:18:06;32.80;40.60
12089;DHT22;6107;49.078;8.578;2022-07-03T14:20:31;32.90;42.30
12089;DHT22;6107;49.078;8.578;2022-07-03T14:22:57;32.60;41.70
12089;DHT22;6107;49.078;8.578;2022-07-03T14:25:23;33.10;41.40
12089;DHT22;6107;49.078;8.578;2022-07-03T14:27:48;33.60;40.00
12089;DHT22;6107;49.078;8.578;2022-07-03T14:30:33;32.40;39.20
12089;DHT22;6107;49.078;8.578;2022-07-03T14:33:17;32.40;42.00
12089;DHT22;6107;49.078;8.578;2022-07-03T14:35:42;32.90;39.50
12089;DHT22;6107;49.078;8.578;2022-07-03T14:38:08;32.50;40.40
12089;DHT22;6107;49.078;8.578;2022-07-03T14:40:34;32.90;42.20
12089;DHT22;6107;49.078;8.578;2022-07-03T14:42:59;32.90;39.40
12089;DHT22;6107;49.078;8.578;2022-07-03T14:45:25;32.50;39.50
12089;DHT22;6107;49.078;8.578;2022-07-03T14:47:51;32.00;39.20
12089;DHT22;6107;49.078;8.578;2022-07-03T14:50:17;32.40;43.50
12089;DHT22;6107;49.078;8.578;2022-07-03T14:52:43;33.10;39.70
12089;DHT22;6107;49.078;8.578;2022-07-03T14:55:09;33.20;42.10
12089;DHT22;6107;49.078;8.578;2022-07-03T14:57:38;33.10;39.70
12089;DHT22;6107;49.078;8.578;2022-07-03T15:00:09;32.80;40.30
12089;DHT22;6107;49.078;8.578;2022-07-03T15:05:27;33.50;39.30
12089;DHT22;6107;49.078;8.578;2022-07-03T15:08:13;33.40;39.80
12089;DHT22;6107;49.078;8.578;2022-07-03T15:10:40;33.50;38.50
12089;DHT22;6107;49.078;8.578;2022-07-03T15:13:06;33.30;38.10
12089;DHT22;6107;49.078;8.578;2022-07-03T15:15:32;32.70;39.00
12089;DHT22;6107;49.078;8.578;2022-07-03T15:18:00;32.40;39.60
12089;DHT22;6107;49.078;8.578;2022-07-03T15:20:30;32.50;40.50
12089;DHT22;6107;49.078;8.578;2022-07-03T15:22:57;33.10;39.00
12089;DHT22;6107;49.078;8.578;2022-07-03T15:25:26;33.30;39.20
12089;DHT22;6107;49.078;8.578;2022-07-03T15:27:52;33.20;39.20
12089;DHT22;6107;49.078;8.578;2022-07-03T15:30:19;33.30;38.60
12089;DHT22;6107;49.078;8.578;2022-07-03T15:32:46;32.80;38.20
12089;DHT22;6107;49.078;8.578;2022-07-03T15:35:15;32.80;39.90
12089;DHT22;6107;49.078;8.578;2022-07-03T15:40:46;33.30;39.00
12089;DHT22;6107;49.078;8.578;2022-07-03T15:51:45;31.30;41.40
12089;DHT22;6107;49.078;8.578;2022-07-03T15:54:27;30.90;41.60
12089;DHT22;6107;49.078;8.578;2022-07-03T15:56:58;31.10;43.50
12089;DHT22;6107;49.078;8.578;2022-07-03T15:59:29;31.00;42.10
12089;DHT22;6107;49.078;8.578;2022-07-03T16:01:59;31.20;42.30
12089;DHT22;6107;49.078;8.578;2022-07-03T16:07:24;31.00;46.60
12089;DHT22;6107;49.078;8.578;2022-07-03T16:09:52;30.80;46.50
12089;DHT22;6107;49.078;8.578;2022-07-03T16:12:17;31.20;43.90
12089;DHT22;6107;49.078;8.578;2022-07-03T16:14:47;32.10;44.60
12089;DHT22;6107;49.078;8.578;2022-07-03T16:17:16;32.00;41.50
12089;DHT22;6107;49.078;8.578;2022-07-03T16:19:44;32.20;41.60
12089;DHT22;6107;49.078;8.578;2022-07-03T16:22:11;32.30;42.80
12089;DHT22;6107;49.078;8.578;2022-07-03T16:24:37;32.10;42.10
12089;DHT22;6107;49.078;8.578;2022-07-03T16:27:04;31.70;42.30
12089;DHT22;6107;49.078;8.578;2022-07-03T16:29:29;31.50;44.80
12089;DHT22;6107;49.078;8.578;2022-07-03T16:31:55;31.50;44.00
12089;DHT22;6107;49.078;8.578;2022-07-03T16:34:37;32.20;43.40
12089;DHT22;6107;49.078;8.578;2022-07-03T16:37:08;32.70;42.70
12089;DHT22;6107;49.078;8.578;2022-07-03T16:39:38;33.20;44.10
12089;DHT22;6107;49.078;8.578;2022-07-03T16:42:05;33.30;40.10
12089;DHT22;6107;49.078;8.578;2022-07-03T16:44:34;33.50;41.60
12089;DHT22;6107;49.078;8.578;2022-07-03T16:47:03;33.30;40.40
12089;DHT22;6107;49.078;8.578;2022-07-03T16:49:34;33.60;43.40
12089;DHT22;6107;49.078;8.578;2022-07-03T16:52:11;33.20;40.60
12089;DHT22;6107;49.078;8.578;2022-07-03T16:54:37;32.80;39.90
12089;DHT22;6107;49.078;8.578;2022-07-03T16:57:07;32.90;39.70
12089;DHT22;6107;49.078;8.578;2022-07-03T16:59:33;32.60;42.40
12089;DHT22;6107;49.078;8.578;2022-07-03T17:02:00;32.50;41.60
12089;DHT22;6107;49.078;8.578;2022-07-03T17:04:27;31.10;46.90
12089;DHT22;6107;49.078;8.578;2022-07-03T17:06:53;31.40;44.90
12089;DHT22;6107;49.078;8.578;2022-07-03T17:09:23;31.10;46.20
12089;DHT22;6107;49.078;8.578;2022-07-03T17:11:49;31.00;48.60
12089;DHT22;6107;49.078;8.578;2022-07-03T17:14:15;30.70;50.10
12089;DHT22;6107;49.078;8.578;2022-07-03T17:16:49;30.90;51.00
12089;DHT22;6107;49.078;8.578;2022-07-03T17:19:22;30.70;48.70
12089;DHT22;6107;49.078;8.578;2022-07-03T17:21:48;30.60;50.30
12089;DHT22;6107;49.078;8.578;2022-07-03T17:24:18;29.80;52.10
12089;DHT22;6107;49.078;8.578;2022-07-03T17:26:47;30.40;51.00
12089;DHT22;6107;49.078;8.578;2022-07-03T17:29:22;30.90;48.00
12089;DHT22;6107;49.078;8.578;2022-07-03T17:31:52;30.20;52.90
12089;DHT22;6107;49.078;8.578;2022-07-03T17:34:22;30.20;51.60
12089;DHT22;6107;49.078;8.578;2022-07-03T17:36:49;30.20;53.60
12089;DHT22;6107;49.078;8.578;2022-07-03T17:39:19;29.30;54.10
12089;DHT22;6107;49.078;8.578;2022-07-03T17:41:49;29.70;52.50
12089;DHT22;6107;49.078;8.578;2022-07-03T17:46:45;28.70;55.60
12089;DHT22;6107;49.078;8.578;2022-07-03T17:49:19;28.60;55.80
12089;DHT22;6107;49.078;8.578;2022-07-03T17:51:47;28.60;55.90
12089;DHT22;6107;49.078;8.578;2022-07-03T17:54:14;29.10;56.30
12089;DHT22;6107;49.078;8.578;2022-07-03T17:56:40;28.90;55.20
12089;DHT22;6107;49.078;8.578;2022-07-03T17:59:06;28.40;55.70
12089;DHT22;6107;49.078;8.578;2022-07-03T18:01:33;28.30;57.30
12089;DHT22;6107;49.078;8.578;2022-07-03T18:03:59;27.90;57.60
12089;DHT22;6107;49.078;8.578;2022-07-03T18:06:28;27.70;58.10
12089;DHT22;6107;49.078;8.578;2022-07-03T18:09:18;27.50;58.60
12089;DHT22;6107;49.078;8.578;2022-07-03T18:16:58;27.00;60.20
12089;DHT22;6107;49.078;8.578;2022-07-03T18:19:27;26.90;60.40
12089;DHT22;6107;49.078;8.578;2022-07-03T18:21:56;26.90;61.60
12089;DHT22;6107;49.078;8.578;2022-07-03T18:24:25;26.80;61.80
12089;DHT22;6107;49.078;8.578;2022-07-03T18:26:54;26.70;63.00
12089;DHT22;6107;49.078;8.578;2022-07-03T18:29:22;26.60;63.00
12089;DHT22;6107;49.078;8.578;2022-07-03T18:31:48;26.60;63.80
12089;DHT22;6107;49.078;8.578;2022-07-03T18:34:17;26.60;64.10
12089;DHT22;6107;49.078;8.578;2022-07-03T18:36:43;26.00;64.00
12089;DHT22;6107;49.078;8.578;2022-07-03T18:39:11;25.80;66.00
12089;DHT22;6107;49.078;8.578;2022-07-03T18:41:37;25.80;66.60
12089;DHT22;6107;49.078;8.578;2022-07-03T18:44:05;25.60;67.30
12089;DHT22;6107;49.078;8.578;2022-07-03T18:46:30;25.50;66.60
12089;DHT22;6107;49.078;8.578;2022-07-03T18:48:56;25.70;66.10
12089;DHT22;6107;49.078;8.578;2022-07-03T18:51:42;25.80;67.40
12089;DHT22;6107;49.078;8.578;2022-07-03T18:54:31;25.30;70.40